sensor_id;sensor_type;location;lat;lon;timestamp;temperature;humidity
23681;DHT22;62915;50.832;4.462;2023-03-01T00:00:16;3.10;99.90
23681;DHT22;62915;50.832;4.462;2023-03-01T00:02:42;3.00;99.90
23681;DHT22;62915;50.832;4.462;2023-03-01T00:05:08;3.10;99.90
23681;DHT22;62915;50.832;4.462;2023-03-01T00:07:33;3.00;99.90
23681;DHT22;62915;50.832;4.462;2023-03-01T00:09:59;3.00;99.90
23681;DHT22;62915;50.832;4.462;2023-03-01T00:12:25;3.10;99.90
23681;DHT22;62915;50.832;4.462;2023-03-01T00:14:51;3.10;99.90
23681;DHT22;62915;50.832;4.462;2023-03-01T00:17:16;3.10;99.90
23681;DHT22;62915;50.832;4.462;2023-03-01T00:19:42;3.00;99.90
23681;DHT22;62915;50.832;4.462;2023-03-01T00:22:08;3.10;99.90
23681;DHT22;62915;50.832;4.462;2023-03-01T00:24:33;3.10;99.90
23681;DHT22;62915;50.832;4.462;2023-03-01T00:26:59;3.00;99.90
23681;DHT22;62915;50.832;4.462;2023-03-01T00:29:25;2.90;99.90
23681;DHT22;62915;50.832;4.462;2023-03-01T00:31:51;2.90;99.90
23681;DHT22;62915;50.832;4.462;2023-03-01T00:34:16;3.00;99.90
23681;DHT22;62915;50.832;4.462;2023-03-01T00:36:42;3.00;99.90
23681;DHT22;62915;50.832;4.462;2023-03-01T00:39:12;2.90;99.90
23681;DHT22;62915;50.832;4.462;2023-03-01T00:41:38;2.90;99.90
23681;DHT22;62915;50.832;4.462;2023-03-01T00:44:05;2.80;99.90
23681;DHT22;62915;50.832;4.462;2023-03-01T00:46:31;2.80;99.90
23681;DHT22;62915;50.832;4.462;2023-03-01T00:48:57;2.80;99.90
23681;DHT22;62915;50.832;4.462;2023-03-01T00:51:25;2.80;99.90
23681;DHT22;62915;50.832;4.462;2023-03-01T00:53:52;2.80;99.90
23681;DHT22;62915;50.832;4.462;2023-03-01T00:56:19;2.70;99.90
23681;DHT22;62915;50.832;4.462;2023-03-01T00:58:44;2.70;99.90
23681;DHT22;62915;50.832;4.462;2023-03-01T01:01:15;2.80;99.90
23681;DHT22;62915;50.832;4.462;2023-03-01T01:06:22;2.80;99.90
23681;DHT22;62915;50.832;4.462;2023-03-01T01:08:49;2.80;99.90
23681;DHT22;62915;50.832;4.462;2023-03-01T01:11:15;2.80;99.90
23681;DHT22;62915;50.832;4.462;2023-03-01T01:13:41;2.80;99.90
23681;DHT22;62915;50.832;4.462;2023-03-01T01:16:08;2.80;99.90
23681;DHT22;62915;50.832;4.462;2023-03-01T01:18:34;2.70;99.90
23681;DHT22;62915;50.832;4.462;2023-03-01T01:21:11;2.60;99.90
23681;DHT22;62915;50.832;4.462;2023-03-01T01:23:38;2.60;99.90
23681;DHT22;62915;50.832;4.462;2023-03-01T01:26:10;2.60;99.90
23681;DHT22;62915;50.832;4.462;2023-03-01T01:28:36;2.60;99.90
23681;DHT22;62915;50.832;4.462;2023-03-01T01:31:02;2.60;99.90
23681;DHT22;62915;50.832;4.462;2023-03-01T01:33:28;2.50;99.90
23681;DHT22;62915;50.832;4.462;2023-03-01T01:35:54;2.40;99.90
23681;DHT22;62915;50.832;4.462;2023-03-01T01:38:20;2.30;99.90
23681;DHT22;62915;50.832;4.462;2023-03-01T01:40:48;2.30;99.90
23681;DHT22;62915;50.832;4.462;2023-03-01T01:45:45;2.40;99.90
23681;DHT22;62915;50.832;4.462;2023-03-01T01:48:18;2.30;99.90
23681;DHT22;62915;50.832;4.462;2023-03-01T01:50:45;2.30;99.90
23681;DHT22;62915;50.832;4.462;2023-03-01T01:53:17;2.30;99.90
23681;DHT22;62915;50.832;4.462;2023-03-01T01:55:46;2.40;99.90
23681;DHT22;62915;50.832;4.462;2023-03-01T01:58:15;2.30;99.90
23681;DHT22;62915;50.832;4.462;2023-03-01T02:00:43;2.30;99.90
23681;DHT22;62915;50.832;4.462;2023-03-01T02:03:20;2.30;99.90
23681;DHT22;62915;50.832;4.462;2023-03-01T02:06:00;2.20;99.90
23681;DHT22;62915;50.832;4.462;2023-03-01T02:08:29;2.20;99.90
23681;DHT22;62915;50.832;4.462;2023-03-01T02:10:57;2.20;99.90
23681;DHT22;62915;50.832;4.462;2023-03-01T02:13:25;2.10;99.90
23681;DHT22;62915;50.832;4.462;2023-03-01T02:15:51;2.10;99.90
23681;DHT22;62915;50.832;4.462;2023-03-01T02:18:18;2.10;99.90
23681;DHT22;62915;50.832;4.462;2023-03-01T02:23:33;2.20;99.90
23681;DHT22;62915;50.832;4.462;2023-03-01T02:28:44;2.20;99.90
23681;DHT22;62915;50.832;4.462;2023-03-01T02:31:16;2.10;99.90
23681;DHT22;62915;50.832;4.462;2023-03-01T02:34:01;2.10;99.90
23681;DHT22;62915;50.832;4.462;2023-03-01T02:36:33;2.10;99.90
23681;DHT22;62915;50.832;4.462;2023-03-01T02:39:02;2.10;99.90
23681;DHT22;62915;50.832;4.462;2023-03-01T02:41:32;2.10;99.90
23681;DHT22;62915;50.832;4.462;2023-03-01T02:43:59;2.10;99.90
23681;DHT22;62915;50.832;4.462;2023-03-01T02:46:25;2.10;99.90
23681;DHT22;62915;50.832;4.462;2023-03-01T02:48:54;2.00;99.90
23681;DHT22;62915;50.832;4.462;2023-03-01T02:56:51;2.00;99.90
23681;DHT22;62915;50.832;4.462;2023-03-01T02:59:20;2.00;99.90
23681;DHT22;62915;50.832;4.462;2023-03-01T03:01:46;2.00;99.90
23681;DHT22;62915;50.832;4.462;2023-03-01T03:04:17;1.90;99.90
23681;DHT22;62915;50.832;4.462;2023-03-01T03:06:44;1.90;99.90
23681;DHT22;62915;50.832;4.462;2023-03-01T03:09:11;1.90;99.90
23681;DHT22;62915;50.832;4.462;2023-03-01T03:11:37;1.80;99.90
23681;DHT22;62915;50.832;4.462;2023-03-01T03:14:05;1.70;99.90
23681;DHT22;62915;50.832;4.462;2023-03-01T03:16:31;1.70;99.90
23681;DHT22;62915;50.832;4.462;2023-03-01T03:18:56;1.80;99.90
23681;DHT22;62915;50.832;4.462;2023-03-01T03:21:31;1.70;99.90
23681;DHT22;62915;50.832;4.462;2023-03-01T03:23:58;1.70;99.90
23681;DHT22;62915;50.832;4.462;2023-03-01T03:26:24;1.70;99.90
23681;DHT22;62915;50.832;4.462;2023-03-01T03:28:50;1.70;99.90
23681;DHT22;62915;50.832;4.462;2023-03-01T03:31:15;1.70;99.90
23681;DHT22;62915;50.832;4.462;2023-03-01T03:33:41;1.70;99.90
23681;DHT22;62915;50.832;4.462;2023-03-01T03:36:07;1.60;99.90
23681;DHT22;62915;50.832;4.462;2023-03-01T03:38:38;1.60;99.90
23681;DHT22;62915;50.832;4.462;2023-03-01T03:41:08;1.60;99.90
23681;DHT22;62915;50.832;4.462;2023-03-01T03:43:36;1.60;99.90
23681;DHT22;62915;50.832;4.462;2023-03-01T03:46:03;1.60;99.90
23681;DHT22;62915;50.832;4.462;2023-03-01T03:48:38;1.50;99.90
23681;DHT22;62915;50.832;4.462;2023-03-01T03:51:04;1.50;99.90
23681;DHT22;62915;50.832;4.462;2023-03-01T03:53:33;1.40;99.90
23681;DHT22;62915;50.832;4.462;2023-03-01T03:55:59;1.50;99.90
23681;DHT22;62915;50.832;4.462;2023-03-01T03:58:25;1.50;99.90
23681;DHT22;62915;50.832;4.462;2023-03-01T04:00:56;1.50;99.90
23681;DHT22;62915;50.832;4.462;2023-03-01T04:03:23;1.50;99.90
23681;DHT22;62915;50.832;4.462;2023-03-01T04:05:50;1.40;99.90
23681;DHT22;62915;50.832;4.462;2023-03-01T04:08:22;1.40;99.90
23681;DHT22;62915;50.832;4.462;2023-03-01T04:10:51;1.30;99.90
23681;DHT22;62915;50.832;4.462;2023-03-01T04:13:19;1.40;99.90
23681;DHT22;62915;50.832;4.462;2023-03-01T04:15:49;1.30;99.90
23681;DHT22;62915;50.832;4.462;2023-03-01T04:18:16;1.30;99.90
23681;DHT22;62915;50.832;4.462;2023-03-01T04:20:43;1.30;99.90
23681;DHT22;62915;50.832;4.462;2023-03-01T04:23:13;1.40;99.90
23681;DHT22;62915;50.832;4.462;2023-03-01T04:25:46;1.30;99.90
23681;DHT22;62915;50.832;4.462;2023-03-01T04:28:12;1.30;99.90
23681;DHT22;62915;50.832;4.462;2023-03-01T04:30:38;1.20;99.90
23681;DHT22;62915;50.832;4.462;2023-03-01T04:33:11;1.30;99.90
23681;DHT22;62915;50.832;4.462;2023-03-01T04:35:37;1.30;99.90
23681;DHT22;62915;50.832;4.462;2023-03-01T04:38:04;1.20;99.90
23681;DHT22;62915;50.832;4.462;2023-03-01T04:40:30;1.20;99.90
23681;DHT22;62915;50.832;4.462;2023-03-01T04:42:56;1.20;99.90
23681;DHT22;62915;50.832;4.462;2023-03-01T04:45:22;1.30;99.90
23681;DHT22;62915;50.832;4.462;2023-03-01T04:47:48;1.10;99.90
23681;DHT22;62915;50.832;4.462;2023-03-01T04:50:16;1.20;99.90
23681;DHT22;62915;50.832;4.462;2023-03-01T04:52:43;1.10;99.90
23681;DHT22;62915;50.832;4.462;2023-03-01T04:55:09;1.10;99.90
23681;DHT22;62915;50.832;4.462;2023-03-01T04:57:36;1.00;99.90
23681;DHT22;62915;50.832;4.462;2023-03-01T05:00:03;1.00;99.90
23681;DHT22;62915;50.832;4.462;2023-03-01T05:03:07;1.00;99.90
23681;DHT22;62915;50.832;4.462;2023-03-01T05:05:37;1.00;99.90
23681;DHT22;62915;50.832;4.462;2023-03-01T05:08:06;1.00;99.90
23681;DHT22;62915;50.832;4.462;2023-03-01T05:10:34;0.90;99.90
23681;DHT22;62915;50.832;4.462;2023-03-01T05:13:01;1.00;99.90
23681;DHT22;62915;50.832;4.462;2023-03-01T05:15:28;0.80;99.90
23681;DHT22;62915;50.832;4.462;2023-03-01T05:17:56;0.90;99.90
23681;DHT22;62915;50.832;4.462;2023-03-01T05:20:23;0.90;99.90
23681;DHT22;62915;50.832;4.462;2023-03-01T05:22:50;0.90;99.90
23681;DHT22;62915;50.832;4.462;2023-03-01T05:25:16;0.80;99.90
23681;DHT22;62915;50.832;4.462;2023-03-01T05:27:42;0.70;99.90
23681;DHT22;62915;50.832;4.462;2023-03-01T05:30:09;0.70;99.90
23681;DHT22;62915;50.832;4.462;2023-03-01T05:32:49;0.70;99.90
23681;DHT22;62915;50.832;4.462;2023-03-01T05:35:16;0.70;99.90
23681;DHT22;62915;50.832;4.462;2023-03-01T05:37:44;0.70;99.90
23681;DHT22;62915;50.832;4.462;2023-03-01T05:40:19;0.70;99.90
23681;DHT22;62915;50.832;4.462;2023-03-01T05:42:46;0.70;99.90
23681;DHT22;62915;50.832;4.462;2023-03-01T05:45:13;0.70;99.90
23681;DHT22;62915;50.832;4.462;2023-03-01T05:47:40;0.70;99.90
23681;DHT22;62915;50.832;4.462;2023-03-01T05:50:29;0.80;99.90
23681;DHT22;62915;50.832;4.462;2023-03-01T05:53:00;0.80;99.90
23681;DHT22;62915;50.832;4.462;2023-03-01T05:55:28;0.80;99.90
23681;DHT22;62915;50.832;4.462;2023-03-01T05:57:54;0.80;99.90
23681;DHT22;62915;50.832;4.462;2023-03-01T06:00:20;0.60;99.90
23681;DHT22;62915;50.832;4.462;2023-03-01T06:02:48;0.60;99.90
23681;DHT22;62915;50.832;4.462;2023-03-01T06:05:14;0.70;99.90
23681;DHT22;62915;50.832;4.462;2023-03-01T06:07:40;0.70;99.90
23681;DHT22;62915;50.832;4.462;2023-03-01T06:10:07;0.70;99.90
23681;DHT22;62915;50.832;4.462;2023-03-01T06:12:35;0.70;99.90
23681;DHT22;62915;50.832;4.462;2023-03-01T06:15:02;0.60;99.90
23681;DHT22;62915;50.832;4.462;2023-03-01T06:17:33;0.70;99.90
23681;DHT22;62915;50.832;4.462;2023-03-01T06:20:03;0.80;99.90
23681;DHT22;62915;50.832;4.462;2023-03-01T06:22:29;0.70;99.90
23681;DHT22;62915;50.832;4.462;2023-03-01T06:24:55;0.70;99.90
23681;DHT22;62915;50.832;4.462;2023-03-01T06:27:21;0.70;99.90
23681;DHT22;62915;50.832;4.462;2023-03-01T06:29:46;0.60;99.90
23681;DHT22;62915;50.832;4.462;2023-03-01T06:32:12;0.60;99.90
23681;DHT22;62915;50.832;4.462;2023-03-01T06:34:38;0.50;99.90
23681;DHT22;62915;50.832;4.462;2023-03-01T06:37:03;0.60;99.90
23681;DHT22;62915;50.832;4.462;2023-03-01T06:39:31;0.70;99.90
23681;DHT22;62915;50.832;4.462;2023-03-01T06:41:57;0.70;99.90
23681;DHT22;62915;50.832;4.462;2023-03-01T06:44:22;0.70;99.90
23681;DHT22;62915;50.832;4.462;2023-03-01T06:46:48;0.60;99.90
23681;DHT22;62915;50.832;4.462;2023-03-01T06:49:14;0.60;99.90
23681;DHT22;62915;50.832;4.462;2023-03-01T06:51:41;0.70;99.90
23681;DHT22;62915;50.832;4.462;2023-03-01T06:54:07;0.60;99.90
23681;DHT22;62915;50.832;4.462;2023-03-01T06:56:33;0.60;99.90
23681;DHT22;62915;50.832;4.462;2023-03-01T06:58:59;0.50;99.90
23681;DHT22;62915;50.832;4.462;2023-03-01T07:01:24;0.60;99.90
23681;DHT22;62915;50.832;4.462;2023-03-01T07:03:50;0.60;99.90
23681;DHT22;62915;50.832;4.462;2023-03-01T07:06:16;0.70;99.90
23681;DHT22;62915;50.832;4.462;2023-03-01T07:08:43;0.40;99.90
23681;DHT22;62915;50.832;4.462;2023-03-01T07:11:09;0.60;99.90
23681;DHT22;62915;50.832;4.462;2023-03-01T07:13:34;0.70;99.90
23681;DHT22;62915;50.832;4.462;2023-03-01T07:16:00;0.80;99.90
23681;DHT22;62915;50.832;4.462;2023-03-01T07:18:26;0.90;99.90
23681;DHT22;62915;50.832;4.462;2023-03-01T07:20:52;0.90;99.90
23681;DHT22;62915;50.832;4.462;2023-03-01T07:23:17;0.90;99.90
23681;DHT22;62915;50.832;4.462;2023-03-01T07:25:43;1.00;99.90
23681;DHT22;62915;50.832;4.462;2023-03-01T07:28:09;1.00;99.90
23681;DHT22;62915;50.832;4.462;2023-03-01T07:30:34;1.10;99.90
23681;DHT22;62915;50.832;4.462;2023-03-01T07:33:00;1.20;99.90
23681;DHT22;62915;50.832;4.462;2023-03-01T07:35:26;1.50;99.90
23681;DHT22;62915;50.832;4.462;2023-03-01T07:37:52;1.80;99.90
23681;DHT22;62915;50.832;4.462;2023-03-01T07:40:19;2.20;99.90
23681;DHT22;62915;50.832;4.462;2023-03-01T07:42:45;2.60;99.90
23681;DHT22;62915;50.832;4.462;2023-03-01T07:45:11;3.10;99.90
23681;DHT22;62915;50.832;4.462;2023-03-01T07:47:38;3.60;99.90
23681;DHT22;62915;50.832;4.462;2023-03-01T07:50:04;3.60;99.90
23681;DHT22;62915;50.832;4.462;2023-03-01T07:52:30;3.90;99.90
23681;DHT22;62915;50.832;4.462;2023-03-01T07:54:58;3.90;99.90
23681;DHT22;62915;50.832;4.462;2023-03-01T07:57:25;4.20;99.90
23681;DHT22;62915;50.832;4.462;2023-03-01T07:59:52;4.40;99.90
23681;DHT22;62915;50.832;4.462;2023-03-01T08:02:18;4.50;99.90
23681;DHT22;62915;50.832;4.462;2023-03-01T08:04:44;4.50;99.90
23681;DHT22;62915;50.832;4.462;2023-03-01T08:07:10;4.80;99.90
23681;DHT22;62915;50.832;4.462;2023-03-01T08:09:36;5.00;99.90
23681;DHT22;62915;50.832;4.462;2023-03-01T08:12:05;5.10;99.90
23681;DHT22;62915;50.832;4.462;2023-03-01T08:14:33;5.20;99.90
23681;DHT22;62915;50.832;4.462;2023-03-01T08:17:01;5.10;99.90
23681;DHT22;62915;50.832;4.462;2023-03-01T08:19:29;5.00;99.90
23681;DHT22;62915;50.832;4.462;2023-03-01T08:21:56;5.00;99.90
23681;DHT22;62915;50.832;4.462;2023-03-01T08:24:25;4.80;99.90
23681;DHT22;62915;50.832;4.462;2023-03-01T08:26:54;4.80;99.90
23681;DHT22;62915;50.832;4.462;2023-03-01T08:29:23;4.80;99.90
23681;DHT22;62915;50.832;4.462;2023-03-01T08:31:50;4.60;99.90
23681;DHT22;62915;50.832;4.462;2023-03-01T08:34:17;4.10;99.90
23681;DHT22;62915;50.832;4.462;2023-03-01T08:36:44;3.70;99.90
23681;DHT22;62915;50.832;4.462;2023-03-01T08:39:12;3.50;99.90
23681;DHT22;62915;50.832;4.462;2023-03-01T08:41:40;3.10;99.90
23681;DHT22;62915;50.832;4.462;2023-03-01T08:44:09;2.90;99.90
23681;DHT22;62915;50.832;4.462;2023-03-01T08:46:40;2.90;99.90
23681;DHT22;62915;50.832;4.462;2023-03-01T08:49:11;2.80;99.90
23681;DHT22;62915;50.832;4.462;2023-03-01T08:51:39;2.80;99.90
23681;DHT22;62915;50.832;4.462;2023-03-01T08:54:09;2.80;99.90
23681;DHT22;62915;50.832;4.462;2023-03-01T08:56:36;2.80;99.90
23681;DHT22;62915;50.832;4.462;2023-03-01T08:59:02;2.80;99.90
23681;DHT22;62915;50.832;4.462;2023-03-01T09:01:28;2.70;99.90
23681;DHT22;62915;50.832;4.462;2023-03-01T09:03:54;2.80;99.90
23681;DHT22;62915;50.832;4.462;2023-03-01T09:06:20;2.80;99.90
23681;DHT22;62915;50.832;4.462;2023-03-01T09:08:47;2.80;99.90
23681;DHT22;62915;50.832;4.462;2023-03-01T09:11:17;2.80;99.90
23681;DHT22;62915;50.832;4.462;2023-03-01T09:13:44;2.90;99.90
23681;DHT22;62915;50.832;4.462;2023-03-01T09:16:12;3.00;99.90
23681;DHT22;62915;50.832;4.462;2023-03-01T09:18:38;3.10;99.90
23681;DHT22;62915;50.832;4.462;2023-03-01T09:21:12;3.10;99.90
23681;DHT22;62915;50.832;4.462;2023-03-01T09:23:40;3.30;99.90
23681;DHT22;62915;50.832;4.462;2023-03-01T09:26:08;3.30;99.90
23681;DHT22;62915;50.832;4.462;2023-03-01T09:28:38;3.50;99.90
23681;DHT22;62915;50.832;4.462;2023-03-01T09:31:06;3.80;99.90
23681;DHT22;62915;50.832;4.462;2023-03-01T09:33:32;3.90;99.90
23681;DHT22;62915;50.832;4.462;2023-03-01T09:36:04;4.10;99.90
23681;DHT22;62915;50.832;4.462;2023-03-01T09:38:30;4.30;99.90
23681;DHT22;62915;50.832;4.462;2023-03-01T09:40:56;4.50;99.90
23681;DHT22;62915;50.832;4.462;2023-03-01T09:43:40;4.90;99.90
23681;DHT22;62915;50.832;4.462;2023-03-01T09:46:13;5.10;99.90
23681;DHT22;62915;50.832;4.462;2023-03-01T09:48:52;5.50;99.90
23681;DHT22;62915;50.832;4.462;2023-03-01T09:51:34;5.80;99.90
23681;DHT22;62915;50.832;4.462;2023-03-01T09:54:02;6.00;99.90
23681;DHT22;62915;50.832;4.462;2023-03-01T09:56:54;6.30;99.90
23681;DHT22;62915;50.832;4.462;2023-03-01T10:02:27;6.70;99.90
23681;DHT22;62915;50.832;4.462;2023-03-01T10:05:14;7.00;99.90
23681;DHT22;62915;50.832;4.462;2023-03-01T10:10:36;7.20;99.90
23681;DHT22;62915;50.832;4.462;2023-03-01T10:16:09;7.30;99.90
23681;DHT22;62915;50.832;4.462;2023-03-01T10:18:38;7.40;99.90
23681;DHT22;62915;50.832;4.462;2023-03-01T10:21:17;7.70;99.90
23681;DHT22;62915;50.832;4.462;2023-03-01T10:23:49;7.80;99.90
23681;DHT22;62915;50.832;4.462;2023-03-01T10:29:04;8.30;99.90
23681;DHT22;62915;50.832;4.462;2023-03-01T10:31:53;8.40;99.90
23681;DHT22;62915;50.832;4.462;2023-03-01T10:34:29;8.30;99.90
23681;DHT22;62915;50.832;4.462;2023-03-01T10:37:01;8.50;99.90
23681;DHT22;62915;50.832;4.462;2023-03-01T10:39:27;8.40;99.90
23681;DHT22;62915;50.832;4.462;2023-03-01T10:42:00;8.40;99.90
23681;DHT22;62915;50.832;4.462;2023-03-01T10:44:38;8.50;99.90
23681;DHT22;62915;50.832;4.462;2023-03-01T10:47:08;8.50;99.90
23681;DHT22;62915;50.832;4.462;2023-03-01T10:49:37;8.50;99.90
23681;DHT22;62915;50.832;4.462;2023-03-01T10:52:21;8.50;99.90
23681;DHT22;62915;50.832;4.462;2023-03-01T10:54:57;8.60;99.90
23681;DHT22;62915;50.832;4.462;2023-03-01T10:57:37;8.70;99.90
23681;DHT22;62915;50.832;4.462;2023-03-01T11:00:25;8.50;98.90
23681;DHT22;62915;50.832;4.462;2023-03-01T11:03:10;8.30;99.90
23681;DHT22;62915;50.832;4.462;2023-03-01T11:05:37;8.40;99.90
23681;DHT22;62915;50.832;4.462;2023-03-01T11:08:15;8.60;99.80
23681;DHT22;62915;50.832;4.462;2023-03-01T11:11:04;8.90;99.90
23681;DHT22;62915;50.832;4.462;2023-03-01T11:13:31;9.20;99.90
23681;DHT22;62915;50.832;4.462;2023-03-01T11:16:08;9.30;99.80
23681;DHT22;62915;50.832;4.462;2023-03-01T11:18:36;9.40;98.60
23681;DHT22;62915;50.832;4.462;2023-03-01T11:21:02;9.40;98.40
23681;DHT22;62915;50.832;4.462;2023-03-01T11:23:30;9.40;98.40
23681;DHT22;62915;50.832;4.462;2023-03-01T11:26:05;9.30;96.90
23681;DHT22;62915;50.832;4.462;2023-03-01T11:28:35;9.40;97.10
23681;DHT22;62915;50.832;4.462;2023-03-01T11:31:06;9.30;96.50
23681;DHT22;62915;50.832;4.462;2023-03-01T11:33:53;9.50;96.50
23681;DHT22;62915;50.832;4.462;2023-03-01T11:36:39;9.70;95.90
23681;DHT22;62915;50.832;4.462;2023-03-01T11:39:37;10.00;95.30
23681;DHT22;62915;50.832;4.462;2023-03-01T11:42:15;10.00;94.70
23681;DHT22;62915;50.832;4.462;2023-03-01T11:44:44;10.40;95.10
23681;DHT22;62915;50.832;4.462;2023-03-01T12:06:02;11.20;91.00
23681;DHT22;62915;50.832;4.462;2023-03-01T12:11:42;10.80;91.90
23681;DHT22;62915;50.832;4.462;2023-03-01T12:17:39;10.60;92.10
23681;DHT22;62915;50.832;4.462;2023-03-01T12:20:32;10.90;92.30
23681;DHT22;62915;50.832;4.462;2023-03-01T12:23:26;11.00;91.50
23681;DHT22;62915;50.832;4.462;2023-03-01T12:39:28;10.60;88.80
23681;DHT22;62915;50.832;4.462;2023-03-01T12:50:14;10.40;91.30
23681;DHT22;62915;50.832;4.462;2023-03-01T12:52:55;10.50;90.40
23681;DHT22;62915;50.832;4.462;2023-03-01T12:55:38;10.50;90.30
23681;DHT22;62915;50.832;4.462;2023-03-01T12:58:31;10.40;90.10
23681;DHT22;62915;50.832;4.462;2023-03-01T13:01:14;10.40;90.70
23681;DHT22;62915;50.832;4.462;2023-03-01T13:07:14;10.40;91.20
23681;DHT22;62915;50.832;4.462;2023-03-01T13:18:02;10.30;92.00
23681;DHT22;62915;50.832;4.462;2023-03-01T13:23:30;10.10;91.00
23681;DHT22;62915;50.832;4.462;2023-03-01T13:26:08;10.00;88.40
23681;DHT22;62915;50.832;4.462;2023-03-01T13:31:07;9.80;89.20
23681;DHT22;62915;50.832;4.462;2023-03-01T13:36:07;10.00;92.50
23681;DHT22;62915;50.832;4.462;2023-03-01T13:50:02;10.20;90.00
23681;DHT22;62915;50.832;4.462;2023-03-01T13:54:59;10.30;90.40
23681;DHT22;62915;50.832;4.462;2023-03-01T13:57:34;10.30;89.20
23681;DHT22;62915;50.832;4.462;2023-03-01T14:00:02;10.30;90.70
23681;DHT22;62915;50.832;4.462;2023-03-01T14:02:28;10.30;88.60
23681;DHT22;62915;50.832;4.462;2023-03-01T14:05:01;10.20;90.00
23681;DHT22;62915;50.832;4.462;2023-03-01T14:07:28;10.20;90.80
23681;DHT22;62915;50.832;4.462;2023-03-01T14:10:02;10.00;91.50
23681;DHT22;62915;50.832;4.462;2023-03-01T14:15:06;9.80;91.80
23681;DHT22;62915;50.832;4.462;2023-03-01T14:17:49;9.90;90.70
23681;DHT22;62915;50.832;4.462;2023-03-01T14:20:23;9.70;90.40
23681;DHT22;62915;50.832;4.462;2023-03-01T14:22:52;9.60;90.60
23681;DHT22;62915;50.832;4.462;2023-03-01T14:25:26;9.50;90.90
23681;DHT22;62915;50.832;4.462;2023-03-01T14:28:23;9.60;91.00
23681;DHT22;62915;50.832;4.462;2023-03-01T14:30:53;9.60;90.40
23681;DHT22;62915;50.832;4.462;2023-03-01T14:36:07;9.80;90.50
23681;DHT22;62915;50.832;4.462;2023-03-01T14:38:34;9.80;91.40
23681;DHT22;62915;50.832;4.462;2023-03-01T14:41:13;9.80;89.10
23681;DHT22;62915;50.832;4.462;2023-03-01T14:43:55;9.70;89.00
23681;DHT22;62915;50.832;4.462;2023-03-01T14:46:29;9.80;89.00
23681;DHT22;62915;50.832;4.462;2023-03-01T14:49:07;9.60;89.60
23681;DHT22;62915;50.832;4.462;2023-03-01T14:51:40;9.50;89.70
23681;DHT22;62915;50.832;4.462;2023-03-01T14:54:26;9.40;91.70
23681;DHT22;62915;50.832;4.462;2023-03-01T14:56:57;9.40;90.60
23681;DHT22;62915;50.832;4.462;2023-03-01T14:59:23;9.40;91.40
23681;DHT22;62915;50.832;4.462;2023-03-01T15:01:51;9.40;91.20
23681;DHT22;62915;50.832;4.462;2023-03-01T15:04:19;9.50;91.50
23681;DHT22;62915;50.832;4.462;2023-03-01T15:06:45;9.30;91.00
23681;DHT22;62915;50.832;4.462;2023-03-01T15:09:14;9.20;91.50
23681;DHT22;62915;50.832;4.462;2023-03-01T15:11:42;9.20;91.30
23681;DHT22;62915;50.832;4.462;2023-03-01T15:14:43;9.20;90.30
23681;DHT22;62915;50.832;4.462;2023-03-01T15:17:22;9.00;90.20
23681;DHT22;62915;50.832;4.462;2023-03-01T15:19:51;8.90;91.10
23681;DHT22;62915;50.832;4.462;2023-03-01T15:22:17;9.10;90.40
23681;DHT22;62915;50.832;4.462;2023-03-01T15:24:48;8.90;90.40
23681;DHT22;62915;50.832;4.462;2023-03-01T15:27:17;8.90;90.90
23681;DHT22;62915;50.832;4.462;2023-03-01T15:29:52;8.90;90.50
23681;DHT22;62915;50.832;4.462;2023-03-01T15:32:30;8.80;91.20
23681;DHT22;62915;50.832;4.462;2023-03-01T15:35:00;8.80;90.80
23681;DHT22;62915;50.832;4.462;2023-03-01T15:37:45;8.70;91.10
23681;DHT22;62915;50.832;4.462;2023-03-01T15:42:45;8.80;90.70
23681;DHT22;62915;50.832;4.462;2023-03-01T15:47:48;8.60;90.20
23681;DHT22;62915;50.832;4.462;2023-03-01T15:50:29;8.60;90.50
23681;DHT22;62915;50.832;4.462;2023-03-01T15:52:57;8.70;91.30
23681;DHT22;62915;50.832;4.462;2023-03-01T15:55:29;8.70;90.80
23681;DHT22;62915;50.832;4.462;2023-03-01T15:58:17;8.80;91.10
23681;DHT22;62915;50.832;4.462;2023-03-01T16:00:44;8.70;91.30
23681;DHT22;62915;50.832;4.462;2023-03-01T16:03:11;8.80;91.20
23681;DHT22;62915;50.832;4.462;2023-03-01T16:05:38;8.80;91.20
23681;DHT22;62915;50.832;4.462;2023-03-01T16:08:05;8.90;91.50
23681;DHT22;62915;50.832;4.462;2023-03-01T16:10:35;8.90;91.70
23681;DHT22;62915;50.832;4.462;2023-03-01T16:13:01;8.80;91.50
23681;DHT22;62915;50.832;4.462;2023-03-01T16:15:32;8.80;91.70
23681;DHT22;62915;50.832;4.462;2023-03-01T16:18:00;8.80;91.10
23681;DHT22;62915;50.832;4.462;2023-03-01T16:20:26;8.70;91.40
23681;DHT22;62915;50.832;4.462;2023-03-01T16:22:52;8.70;91.20
23681;DHT22;62915;50.832;4.462;2023-03-01T16:25:19;8.70;91.00
23681;DHT22;62915;50.832;4.462;2023-03-01T16:27:50;8.60;91.10
23681;DHT22;62915;50.832;4.462;2023-03-01T16:30:19;8.60;90.10
23681;DHT22;62915;50.832;4.462;2023-03-01T16:32:46;8.40;91.10
23681;DHT22;62915;50.832;4.462;2023-03-01T16:35:14;8.20;91.10
23681;DHT22;62915;50.832;4.462;2023-03-01T16:37:40;8.20;91.00
23681;DHT22;62915;50.832;4.462;2023-03-01T16:40:25;8.10;91.30
23681;DHT22;62915;50.832;4.462;2023-03-01T16:42:52;8.30;91.20
23681;DHT22;62915;50.832;4.462;2023-03-01T16:45:18;8.30;91.10
23681;DHT22;62915;50.832;4.462;2023-03-01T16:47:44;8.30;91.30
23681;DHT22;62915;50.832;4.462;2023-03-01T16:50:11;8.20;91.70
23681;DHT22;62915;50.832;4.462;2023-03-01T16:52:36;8.20;91.90
23681;DHT22;62915;50.832;4.462;2023-03-01T16:55:03;8.20;92.30
23681;DHT22;62915;50.832;4.462;2023-03-01T16:57:30;8.10;92.60
23681;DHT22;62915;50.832;4.462;2023-03-01T16:59:55;8.10;92.10
23681;DHT22;62915;50.832;4.462;2023-03-01T17:02:21;8.10;94.00
23681;DHT22;62915;50.832;4.462;2023-03-01T17:04:54;8.10;92.80
23681;DHT22;62915;50.832;4.462;2023-03-01T17:07:21;8.20;92.90
23681;DHT22;62915;50.832;4.462;2023-03-01T17:09:47;8.20;92.80
23681;DHT22;62915;50.832;4.462;2023-03-01T17:12:14;8.10;93.00
23681;DHT22;62915;50.832;4.462;2023-03-01T17:14:42;8.20;93.20
23681;DHT22;62915;50.832;4.462;2023-03-01T17:17:08;8.10;93.20
23681;DHT22;62915;50.832;4.462;2023-03-01T17:19:35;8.10;93.40
23681;DHT22;62915;50.832;4.462;2023-03-01T17:22:05;8.10;93.80
23681;DHT22;62915;50.832;4.462;2023-03-01T17:24:36;8.00;93.60
23681;DHT22;62915;50.832;4.462;2023-03-01T17:27:02;7.90;94.00
23681;DHT22;62915;50.832;4.462;2023-03-01T17:29:28;8.00;94.20
23681;DHT22;62915;50.832;4.462;2023-03-01T17:31:55;8.10;94.40
23681;DHT22;62915;50.832;4.462;2023-03-01T17:34:21;7.90;94.10
23681;DHT22;62915;50.832;4.462;2023-03-01T17:36:50;7.90;94.60
23681;DHT22;62915;50.832;4.462;2023-03-01T17:39:19;7.80;95.00
23681;DHT22;62915;50.832;4.462;2023-03-01T17:41:50;7.70;95.40
23681;DHT22;62915;50.832;4.462;2023-03-01T17:44:16;7.70;95.40
23681;DHT22;62915;50.832;4.462;2023-03-01T17:46:42;7.80;95.30
23681;DHT22;62915;50.832;4.462;2023-03-01T17:49:07;7.70;95.50
23681;DHT22;62915;50.832;4.462;2023-03-01T17:51:33;7.70;96.30
23681;DHT22;62915;50.832;4.462;2023-03-01T17:53:59;7.60;96.60
23681;DHT22;62915;50.832;4.462;2023-03-01T17:56:24;7.70;96.30
23681;DHT22;62915;50.832;4.462;2023-03-01T17:58:51;7.70;96.40